Exeter, Missouri
Current Conditions -  °F | °C
As of 6:55 PM on Friday 19 Dec 2014 (Local Time) from KHFJ Reporting Station
Haze Haze  
Wind Chill: 34°   Ceiling: 200
Heat Index: 37°   Visibility: 3mi
Dew Point: 37°   Wind: 5mph
Humidity: 100%   Direction: 130°SE
Pressure: 30.18"   Gusts: NA
Location:  36.67°N, 93.94°W
Report Text: KHFJ 200055Z AUTO 13004KT 3SM BR OVC002 03/03 A3018 RMK AO2
Loading
Personal Weather Stations






























Interactive Weather Map New forecast layout! Learn more

10-Day Weather Forecast

Advertisements
Track Severe Weather on mobile